Hauptseite
METAR-TAF:

METAR-TAF

Flughäfen :

Flughafen Tunis

Tunis, Tunesien

Breite: 36-50N, Länge: 010-14E, Höhe: 3 m

Beobachtung

Neuester Wetterbericht von vor 48 Minuten, um 04:30 UTC
Wind 9 kt aus Nordwest
Temperatur 23°C
Luftfeuchtigkeit 83%
Luftdruck 1019 hPa
Sichtweite 10 km oder mehr
Leicht bewölkt in der Höhe von 2300 ft

METAR: DTTA 230430Z 31009KT 9999 FEW023 23/20 Q1019 NOSIG

Zeit: 06:18 (05:18 UTC)

Prognose

Neuester Wetterbericht von vor 6 Stunden und 18 Minuten, um 23:00 UTC
Gültige Prognose vom 23 um 00 UTC bis 23 um 24 UTC
Wind 8 kt aus West/Nordwest
Sichtweite 10 km oder mehr
Leicht bewölkt in der Höhe von 2300 ft
Übergehend zu
vom 23 um 13 UTC bis 23 um 15 UTC
Wind 10 kt aus Nord
Übergehend zu
vom 23 um 21 UTC bis 23 um 23 UTC
Wind 5 kt aus West/Südwest

TAF: DTTA 222300Z 2300/2324 30008KT 9999 FEW023 BECMG 2313/2315 36010KT BECMG 2321/2323 25005KT

Wetterbeobachtungen und Prognosen von mehr als 4000 Flughäfen (METAR und TAF Bericht).

Die verfügbaren Stationen werden durch gelbe und rote Markierungen auf der Karte dargestellt.

Führen Sie die Maus auf sie, um den Namen der Station zu sehen.

Darauf klicken, um die Beobachtung von Wetterbeobachtungen und Prognosen zu sehen.

Um die Karte zu ändern : klicken Sie auf den grünen Tasten mit einem schwarzen Kreuz Zum Vergrößern, auf den grünen Button mit einem Gedankenstrich zu verkleinern, oder auf die grünen Pfeile für benachbarte Karten.


METAR-TAF: